Terminal Aerodrome Forecast
Issued by NWS Rapid City, SD

Home | Current Version | Previous Version | Graphics & Text | Print | Product List | Glossary On
Versions: 1 2 3 4 5 6 7 8 9 10 11 12 13 14 15
000
FTUS43 KUNR 171700
TAFRAP
TAF
KRAP 171720Z 1718/1818 35012KT P6SM SCT020
      TEMPO 1718/1719 BKN020
     FM172100 01010KT P6SM SKC
     FM180300 13004KT P6SM SKC=

USA.gov is the U.S. government's official web portal to all federal, state and local government web resources and services.